createdAt,value
2019-01-17T00:01:18.578Z,99763.63
2019-01-17T00:03:57.222Z,99751.75
2019-01-17T00:06:46.449Z,99747.30
2019-01-17T00:09:31.340Z,99755.72
2019-01-17T00:12:16.377Z,99748.59
2019-01-17T00:14:58.572Z,99753.00
2019-01-17T00:17:31.592Z,99744.56
2019-01-17T00:20:07.651Z,99741.75
2019-01-17T00:22:46.660Z,99732.92
2019-01-17T00:25:28.412Z,99732.59
2019-01-17T00:28:04.297Z,99721.41
2019-01-17T00:30:40.140Z,99717.84
2019-01-17T00:33:13.079Z,99717.98
2019-01-17T00:35:48.943Z,99724.09
2019-01-17T00:38:33.940Z,99720.83
2019-01-17T00:41:12.905Z,99719.80
2019-01-17T00:44:03.945Z,99712.66
2019-01-17T00:46:50.643Z,99707.96
2019-01-17T00:49:38.817Z,99710.70
2019-01-17T00:52:11.770Z,99708.93
2019-01-17T00:54:53.845Z,99704.86
2019-01-17T00:57:38.718Z,99705.53
2019-01-17T01:00:32.658Z,99693.64
2019-01-17T01:03:23.935Z,99690.64
2019-01-17T01:06:02.929Z,99698.63
2019-01-17T01:08:35.888Z,99702.05
2019-01-17T01:11:27.250Z,99698.70
2019-01-17T01:14:12.523Z,99695.62
2019-01-17T01:17:06.335Z,99687.25
2019-01-17T01:19:42.206Z,99691.17
2019-01-17T01:22:33.477Z,99681.52
2019-01-17T01:25:09.570Z,99686.31
2019-01-17T01:27:42.501Z,99671.03
2019-01-17T01:30:23.326Z,99683.98
2019-01-17T01:33:05.343Z,99676.42
2019-01-17T01:35:50.352Z,99677.82
2019-01-17T01:38:26.327Z,99662.64
2019-01-17T01:40:59.695Z,99671.15
2019-01-17T01:43:35.634Z,99678.38
2019-01-17T01:46:08.563Z,99683.35
2019-01-17T01:48:41.583Z,99669.70
2019-01-17T01:51:14.850Z,99682.39
2019-01-17T01:53:46.318Z,99667.84
2019-01-17T01:56:17.621Z,99679.80
2019-01-17T01:58:48.976Z,99678.88
2019-01-17T02:01:20.550Z,99677.08
2019-01-17T02:03:51.907Z,99670.73
2019-01-17T02:06:23.675Z,99669.52
2019-01-17T02:08:54.970Z,99668.06
2019-01-17T02:11:26.447Z,99668.41
2019-01-17T02:13:58.106Z,99670.39
2019-01-17T02:16:29.863Z,99674.14
2019-01-17T02:19:01.648Z,99661.59
2019-01-17T02:21:33.562Z,99665.67
2019-01-17T02:24:04.883Z,99658.86
2019-01-17T02:26:36.175Z,99654.86
2019-01-17T02:29:07.489Z,99663.92
2019-01-17T02:31:38.786Z,99659.92
2019-01-17T02:34:10.097Z,99655.81
2019-01-17T02:36:41.390Z,99662.65
2019-01-17T02:39:12.760Z,99661.69
2019-01-17T02:41:44.499Z,99661.32
2019-01-17T02:44:15.808Z,99663.11
2019-01-17T02:46:47.309Z,99660.59
2019-01-17T02:49:18.601Z,99662.58
2019-01-17T02:51:49.920Z,99655.75
2019-01-17T02:54:21.211Z,99658.14
2019-01-17T02:56:52.524Z,99647.98
2019-01-17T02:59:23.837Z,99653.47
2019-01-17T03:01:55.157Z,99650.57
2019-01-17T03:04:26.832Z,99644.59
2019-01-17T03:06:58.513Z,99640.97
2019-01-17T03:09:30.144Z,99638.11
2019-01-17T03:12:01.423Z,99638.60
2019-01-17T03:14:32.730Z,99625.91
2019-01-17T03:17:04.045Z,99639.03
2019-01-17T03:19:35.391Z,99648.80
2019-01-17T03:22:06.703Z,99633.73
2019-01-17T03:24:42.958Z,99642.83
2019-01-17T03:27:11.041Z,99640.89
2019-01-17T03:29:42.409Z,99641.62
2019-01-17T03:32:13.789Z,99631.09
2019-01-17T03:34:45.058Z,99637.41
2019-01-17T03:37:16.363Z,99638.69
2019-01-17T03:39:47.680Z,99649.00
2019-01-17T03:42:18.991Z,99649.87
2019-01-17T03:44:50.285Z,99646.06
2019-01-17T03:47:22.141Z,99669.14
2019-01-17T03:49:53.451Z,99657.68
2019-01-17T03:52:24.740Z,99651.62
2019-01-17T03:54:56.061Z,99662.84
2019-01-17T03:57:27.341Z,99666.61
2019-01-17T04:00:00.367Z,99657.81
2019-01-17T04:02:31.728Z,99657.77
2019-01-17T04:05:03.033Z,99658.66
2019-01-17T04:07:34.322Z,99654.19
2019-01-17T04:10:12.124Z,99655.00
2019-01-17T04:12:43.409Z,99652.23
2019-01-17T04:15:14.848Z,99652.09
2019-01-17T04:17:46.212Z,99648.40
2019-01-17T04:20:17.785Z,99650.03
2019-01-17T04:22:49.136Z,99654.98
2019-01-17T04:25:20.755Z,99654.05
2019-01-17T04:27:52.025Z,99649.94
2019-01-17T04:30:23.326Z,99651.98
2019-01-17T04:32:54.747Z,99643.10
2019-01-17T04:35:26.126Z,99655.96
2019-01-17T04:37:57.491Z,99651.49
2019-01-17T04:40:28.822Z,99643.77
2019-01-17T04:43:00.107Z,99641.56
2019-01-17T04:45:31.411Z,99642.87
2019-01-17T04:48:02.982Z,99636.80
2019-01-17T04:50:34.350Z,99643.59
2019-01-17T04:53:05.656Z,99653.45
2019-01-17T04:55:37.388Z,99651.98
2019-01-17T04:58:08.689Z,99665.00
2019-01-17T05:00:39.978Z,99665.63
2019-01-17T05:03:11.551Z,99667.73
2019-01-17T05:05:42.838Z,99665.97
2019-01-17T05:08:14.231Z,99664.58
2019-01-17T05:10:45.524Z,99666.41
2019-01-17T05:13:16.808Z,99671.41
2019-01-17T05:15:48.170Z,99676.89
2019-01-17T05:18:19.470Z,99672.59
2019-01-17T05:20:50.769Z,99676.94
2019-01-17T05:23:22.628Z,99674.94
2019-01-17T05:25:54.075Z,99673.80
2019-01-17T05:28:25.727Z,99675.90
2019-01-17T05:30:57.105Z,99677.13
2019-01-17T05:33:28.388Z,99676.58
2019-01-17T05:35:59.693Z,99676.17
2019-01-17T05:38:30.982Z,99675.11
2019-01-17T05:41:02.569Z,99683.73
2019-01-17T05:43:33.855Z,99673.66
2019-01-17T05:46:05.337Z,99674.91
2019-01-17T05:48:36.613Z,99681.76
2019-01-17T05:51:07.984Z,99668.84
2019-01-17T05:53:39.270Z,99663.06
2019-01-17T05:56:10.550Z,99667.02
2019-01-17T05:58:41.853Z,99672.78
2019-01-17T06:01:13.143Z,99674.78
2019-01-17T06:03:44.450Z,99674.98
2019-01-17T06:06:15.733Z,99674.36
2019-01-17T06:08:47.033Z,99683.95
2019-01-17T06:11:18.333Z,99689.22
2019-01-17T06:13:49.643Z,99703.97
2019-01-17T06:16:20.928Z,99704.03
2019-01-17T06:18:52.232Z,99698.02
2019-01-17T06:21:23.510Z,99713.41
2019-01-17T06:23:54.878Z,99709.08
2019-01-17T06:26:26.162Z,99703.64
2019-01-17T06:28:57.457Z,99697.48
2019-01-17T06:31:28.778Z,99702.89
2019-01-17T06:34:00.077Z,99711.89
2019-01-17T06:36:31.380Z,99713.13
2019-01-17T06:39:02.738Z,99703.99
2019-01-17T06:41:34.339Z,99709.27
2019-01-17T06:44:05.688Z,99700.06
2019-01-17T06:46:36.983Z,99704.09
2019-01-17T06:49:08.287Z,99711.19
2019-01-17T06:51:39.826Z,99720.20
2019-01-17T06:54:11.121Z,99724.28
2019-01-17T06:56:42.400Z,99726.70
2019-01-17T06:59:14.071Z,99727.22
2019-01-17T07:01:45.421Z,99730.51
2019-01-17T07:04:16.718Z,99726.70
2019-01-17T07:06:48.004Z,99742.22
2019-01-17T07:09:19.319Z,99731.27
2019-01-17T07:11:50.600Z,99734.30
2019-01-17T07:14:21.927Z,99742.42
2019-01-17T07:17:05.881Z,99752.72
2019-01-17T07:19:37.191Z,99747.47
2019-01-17T07:22:08.478Z,99748.05
2019-01-17T07:24:39.778Z,99753.77
2019-01-17T07:27:11.061Z,99749.21
2019-01-17T07:29:42.366Z,99762.60
2019-01-17T07:32:13.664Z,99758.33
2019-01-17T07:34:44.956Z,99762.16
2019-01-17T07:37:16.523Z,99752.03
2019-01-17T07:39:48.150Z,99749.63
2019-01-17T07:42:19.452Z,99757.63
2019-01-17T07:44:50.736Z,99761.39
2019-01-17T07:47:22.063Z,99759.13
2019-01-17T07:49:53.352Z,99761.27
2019-01-17T07:52:24.655Z,99769.77
2019-01-17T07:54:56.108Z,99761.73
2019-01-17T07:57:27.422Z,99767.84
2019-01-17T07:59:58.708Z,99766.84
2019-01-17T08:02:30.016Z,99771.77
2019-01-17T08:05:01.301Z,99775.31
2019-01-17T08:07:32.603Z,99758.11
2019-01-17T08:10:05.647Z,99762.75
2019-01-17T08:12:36.941Z,99763.45
2019-01-17T08:15:10.851Z,99762.64
2019-01-17T08:17:42.488Z,99772.89
2019-01-17T08:20:24.379Z,99774.50
2019-01-17T08:22:55.773Z,99768.38
2019-01-17T08:25:27.063Z,99774.95
2019-01-17T08:27:58.361Z,99774.13
2019-01-17T08:30:29.646Z,99769.56
2019-01-17T08:33:00.946Z,99773.82
2019-01-17T08:35:32.235Z,99770.66
2019-01-17T08:38:03.535Z,99773.64
2019-01-17T08:40:34.838Z,99774.95
2019-01-17T08:43:06.134Z,99777.11
2019-01-17T08:45:37.418Z,99778.20
2019-01-17T08:48:08.721Z,99782.34
2019-01-17T08:50:40.080Z,99778.97
2019-01-17T08:53:11.389Z,99785.88
2019-01-17T08:55:42.687Z,99787.52
2019-01-17T08:58:13.994Z,99791.96
2019-01-17T09:00:45.279Z,99788.20
2019-01-17T09:03:16.586Z,99791.87
2019-01-17T09:05:47.889Z,99800.05
2019-01-17T09:08:19.182Z,99791.69
2019-01-17T09:10:50.483Z,99796.41
2019-01-17T09:13:21.769Z,99795.10
2019-01-17T09:15:53.352Z,99784.45
2019-01-17T09:18:24.656Z,99781.45
2019-01-17T09:20:55.957Z,99788.10
2019-01-17T09:23:27.264Z,99788.10
2019-01-17T09:25:58.852Z,99784.11
2019-01-17T09:28:30.137Z,99778.36
2019-01-17T09:31:01.469Z,99778.83
2019-01-17T09:33:32.775Z,99752.07
2019-01-17T09:36:04.157Z,99785.77
2019-01-17T09:38:35.513Z,99784.58
2019-01-17T09:41:06.983Z,99782.95
2019-01-17T09:43:38.322Z,99782.80
2019-01-17T09:46:09.650Z,99781.56
2019-01-17T09:48:41.218Z,99781.21
2019-01-17T09:51:12.781Z,99785.97
2019-01-17T09:53:44.143Z,99782.76
2019-01-17T09:56:15.445Z,99779.34
2019-01-17T09:58:46.729Z,99770.39
2019-01-17T10:01:18.036Z,99776.08
2019-01-17T10:03:49.400Z,99777.71
2019-01-17T10:06:20.712Z,99770.98
2019-01-17T10:08:52.010Z,99765.41
2019-01-17T10:11:23.460Z,99782.97
2019-01-17T10:13:54.789Z,99775.38
2019-01-17T10:16:30.969Z,99770.56
2019-01-17T10:19:50.480Z,99753.06
2019-01-17T10:22:43.085Z,99766.85
2019-01-17T10:25:38.674Z,99756.32
2019-01-17T10:28:42.758Z,99751.62
2019-01-17T10:31:21.684Z,99754.45
2019-01-17T10:34:00.741Z,99747.27
2019-01-17T10:36:51.772Z,99750.19
2019-01-17T10:39:50.073Z,99753.32
2019-01-17T10:42:53.096Z,99743.44
2019-01-17T10:45:38.000Z,99743.38
2019-01-17T10:48:47.407Z,99745.69
2019-01-17T10:51:47.417Z,99742.77
2019-01-17T10:54:26.256Z,99729.41
2019-01-17T10:57:08.346Z,99717.31
2019-01-17T10:59:50.187Z,99721.00
2019-01-17T11:02:41.020Z,99719.67
2019-01-17T11:05:38.695Z,99718.06
2019-01-17T11:08:25.938Z,99711.48
2019-01-17T11:11:25.971Z,99710.05
2019-01-17T11:14:13.777Z,99711.41
2019-01-17T11:17:12.284Z,99712.83
2019-01-17T11:20:00.253Z,99703.91
2019-01-17T11:22:53.443Z,99696.87
2019-01-17T11:25:38.460Z,99691.15
2019-01-17T11:28:26.471Z,99681.70
2019-01-17T11:31:19.969Z,99687.74
2019-01-17T11:34:08.340Z,99679.48
2019-01-17T11:36:53.212Z,99680.78
2019-01-17T11:39:34.696Z,99680.98
2019-01-17T11:42:27.449Z,99676.17
2019-01-17T11:45:06.532Z,99671.75
2019-01-17T11:48:14.030Z,99676.23
2019-01-17T11:51:02.195Z,99669.94
2019-01-17T11:53:59.488Z,99674.42
2019-01-17T11:56:50.288Z,99672.98
2019-01-17T11:59:35.314Z,99670.48
2019-01-17T12:02:39.115Z,99677.27
2019-01-17T12:05:08.664Z,99669.47
2019-01-17T12:07:40.027Z,99672.23
2019-01-17T12:10:11.306Z,99678.62
2019-01-17T12:12:43.157Z,99669.80
2019-01-17T12:15:14.861Z,99666.19
2019-01-17T12:17:46.169Z,99664.05
2019-01-17T12:20:17.982Z,99653.30
2019-01-17T12:22:49.396Z,99655.50
2019-01-17T12:25:20.669Z,99666.76
2019-01-17T12:27:51.964Z,99658.67
2019-01-17T12:30:23.271Z,99664.30
2019-01-17T12:32:54.590Z,99662.55
2019-01-17T12:35:26.360Z,99658.11
2019-01-17T12:37:57.677Z,99652.74
2019-01-17T12:40:28.961Z,99660.66
2019-01-17T12:43:00.256Z,99655.19
2019-01-17T12:45:31.577Z,99653.27
2019-01-17T12:48:02.931Z,99663.02
2019-01-17T12:50:34.239Z,99648.03
2019-01-17T12:53:05.886Z,99652.60
2019-01-17T12:55:37.203Z,99643.78
2019-01-17T12:58:08.491Z,99648.02
2019-01-17T13:00:39.785Z,99657.16
2019-01-17T13:03:11.141Z,99649.09
2019-01-17T13:05:42.464Z,99642.80
2019-01-17T13:08:13.792Z,99634.41
2019-01-17T13:10:45.109Z,99648.04
2019-01-17T13:13:16.393Z,99648.28
2019-01-17T13:15:48.311Z,99635.31
2019-01-17T13:18:19.581Z,99635.08
2019-01-17T13:20:50.870Z,99630.72
2019-01-17T13:23:22.571Z,99637.87
2019-01-17T13:25:53.859Z,99634.00
2019-01-17T13:28:25.232Z,99631.15
2019-01-17T13:30:56.507Z,99634.22
2019-01-17T13:33:28.189Z,99620.48
2019-01-17T13:35:59.558Z,99624.92
2019-01-17T13:38:30.947Z,99617.23
2019-01-17T13:41:02.302Z,99614.78
2019-01-17T13:43:33.625Z,99616.58
2019-01-17T13:46:04.916Z,99619.98
2019-01-17T13:48:36.604Z,99623.20
2019-01-17T13:51:07.898Z,99626.09
2019-01-17T13:53:39.770Z,99629.35
2019-01-17T13:56:11.185Z,99632.86
2019-01-17T13:58:42.842Z,99626.91
2019-01-17T14:01:14.134Z,99630.00
2019-01-17T14:03:45.434Z,99639.02
2019-01-17T14:06:16.729Z,99641.81
2019-01-17T14:08:48.351Z,99645.64
2019-01-17T14:11:19.674Z,99641.16
2019-01-17T14:13:51.138Z,99635.66
2019-01-17T14:16:22.535Z,99640.88
2019-01-17T14:18:53.891Z,99647.99
2019-01-17T14:21:26.311Z,99655.31
2019-01-17T14:23:58.334Z,99653.85
2019-01-17T14:26:29.717Z,99657.27
2019-01-17T14:29:01.067Z,99665.91
2019-01-17T14:31:32.666Z,99663.52
2019-01-17T14:34:04.004Z,99666.52
2019-01-17T14:36:35.295Z,99674.28
2019-01-17T14:39:07.365Z,99680.86
2019-01-17T14:41:39.115Z,99676.73
2019-01-17T14:44:10.591Z,99688.05
2019-01-17T14:46:41.907Z,99673.05
2019-01-17T14:49:13.276Z,99681.02
2019-01-17T14:51:44.603Z,99691.66
2019-01-17T14:54:15.966Z,99694.92
2019-01-17T14:56:47.350Z,99695.41
2019-01-17T14:59:18.637Z,99701.48
2019-01-17T15:01:49.958Z,99699.22
2019-01-17T15:04:21.280Z,99700.03
2019-01-17T15:06:52.604Z,99708.89
2019-01-17T15:09:23.914Z,99709.47
2019-01-17T15:11:55.285Z,99708.48
2019-01-17T15:14:26.594Z,99712.30
2019-01-17T15:16:57.919Z,99720.88
2019-01-17T15:19:29.338Z,99720.63
2019-01-17T15:22:00.666Z,99726.03
2019-01-17T15:24:31.953Z,99723.95
2019-01-17T15:27:03.258Z,99731.30
2019-01-17T15:29:34.858Z,99722.93
2019-01-17T15:32:06.156Z,99720.57
2019-01-17T15:34:37.700Z,99722.36
2019-01-17T15:37:09.011Z,99717.69
2019-01-17T15:39:40.306Z,99724.02
2019-01-17T15:42:11.718Z,99726.37
2019-01-17T15:44:43.167Z,99730.09
2019-01-17T15:47:14.503Z,99741.89
2019-01-17T15:49:45.791Z,99741.42
2019-01-17T15:52:17.694Z,99736.77
2019-01-17T15:54:49.071Z,99738.94
2019-01-17T15:57:20.378Z,99747.09
2019-01-17T15:59:51.771Z,99759.24
2019-01-17T16:02:24.061Z,99761.78
2019-01-17T16:04:55.344Z,99759.95
2019-01-17T16:07:26.645Z,99763.19
2019-01-17T16:09:57.935Z,99760.34
2019-01-17T16:12:29.213Z,99770.59
2019-01-17T16:15:04.769Z,99772.94
2019-01-17T16:17:36.068Z,99778.49
2019-01-17T16:20:11.730Z,99787.98
2019-01-17T16:22:43.087Z,99789.06
2019-01-17T16:25:15.285Z,99787.20
2019-01-17T16:27:52.763Z,99783.66
2019-01-17T16:30:26.185Z,99795.28
2019-01-17T16:32:57.503Z,99797.06
2019-01-17T16:35:29.164Z,99797.36
2019-01-17T16:38:00.467Z,99798.13
2019-01-17T16:40:31.791Z,99803.08
2019-01-17T16:43:03.075Z,99800.12
2019-01-17T16:45:35.597Z,99802.78
2019-01-17T16:48:07.172Z,99805.48
2019-01-17T16:50:38.486Z,99805.55
2019-01-17T16:53:09.858Z,99802.30
2019-01-17T16:55:41.308Z,99810.84
2019-01-17T16:58:14.158Z,99808.31
2019-01-17T17:00:46.175Z,99806.24
2019-01-17T17:03:17.491Z,99825.39
2019-01-17T17:05:48.795Z,99840.77
2019-01-17T17:08:20.384Z,99845.52
2019-01-17T17:10:52.211Z,99849.72
2019-01-17T17:13:23.607Z,99854.86
2019-01-17T17:15:54.984Z,99859.58
2019-01-17T17:18:26.262Z,99863.94
2019-01-17T17:20:57.645Z,99875.41
2019-01-17T17:23:29.021Z,99880.50
2019-01-17T17:26:00.321Z,99881.77
2019-01-17T17:28:31.603Z,99899.81
2019-01-17T17:31:02.909Z,99889.41
2019-01-17T17:33:34.199Z,99887.77
2019-01-17T17:36:05.496Z,99888.39
2019-01-17T17:38:36.813Z,99840.45
2019-01-17T17:41:08.144Z,99898.83
2019-01-17T17:43:39.727Z,99898.61
2019-01-17T17:46:11.026Z,99906.87
2019-01-17T17:48:42.310Z,99914.67
2019-01-17T17:51:13.598Z,99913.22
2019-01-17T17:53:45.225Z,99920.78
2019-01-17T17:56:16.541Z,99931.73
2019-01-17T17:58:47.823Z,99939.95
2019-01-17T18:01:20.632Z,99951.56
2019-01-17T18:03:51.911Z,99966.69
2019-01-17T18:06:23.232Z,99970.11
2019-01-17T18:08:54.510Z,99982.66
2019-01-17T18:11:25.882Z,99999.78
2019-01-17T18:13:57.245Z,100003.72
2019-01-17T18:16:29.012Z,100012.38
2019-01-17T18:19:00.309Z,100016.44
2019-01-17T18:21:31.749Z,100032.92
2019-01-17T18:24:03.046Z,100035.30
2019-01-17T18:26:34.377Z,100049.27
2019-01-17T18:29:05.816Z,100046.17
2019-01-17T18:31:37.229Z,100047.02
2019-01-17T18:34:08.652Z,100039.53
2019-01-17T18:36:40.016Z,100040.81
2019-01-17T18:39:12.386Z,100046.81
2019-01-17T18:41:43.724Z,100049.48
2019-01-17T18:44:15.106Z,100047.34
2019-01-17T18:46:46.463Z,100055.23
2019-01-17T18:49:18.335Z,100060.00
2019-01-17T18:51:49.894Z,100062.06
2019-01-17T18:54:21.683Z,100064.98
2019-01-17T18:56:53.008Z,100062.98
2019-01-17T18:59:24.362Z,100064.62
2019-01-17T19:01:55.795Z,100067.10
2019-01-17T19:04:28.011Z,100080.13
2019-01-17T19:06:59.386Z,100085.52
2019-01-17T19:09:30.933Z,100092.66
2019-01-17T19:12:02.505Z,100050.05
2019-01-17T19:14:33.818Z,100108.03
2019-01-17T19:17:05.096Z,100113.27
2019-01-17T19:19:36.663Z,100123.75
2019-01-17T19:22:07.952Z,100135.36
2019-01-17T19:24:40.038Z,100135.81
2019-01-17T19:27:11.344Z,100140.68
2019-01-17T19:29:42.952Z,100140.84
2019-01-17T19:32:14.252Z,100151.00
2019-01-17T19:34:45.610Z,100144.11
2019-01-17T19:37:16.956Z,100148.34
2019-01-17T19:39:48.255Z,100160.88
2019-01-17T19:42:19.534Z,100163.13
2019-01-17T19:44:50.822Z,100169.12
2019-01-17T19:47:22.147Z,100167.83
2019-01-17T19:49:53.439Z,100172.93
2019-01-17T19:52:24.735Z,100181.06
2019-01-17T19:54:56.356Z,100193.06
2019-01-17T19:57:27.643Z,100200.63
2019-01-17T19:59:59.029Z,100213.66
2019-01-17T20:02:31.186Z,100225.12
2019-01-17T20:05:02.583Z,100225.02
2019-01-17T20:07:36.074Z,100231.08
2019-01-17T20:10:14.986Z,100238.41
2019-01-17T20:12:48.495Z,100253.55
2019-01-17T20:15:21.274Z,100264.67
2019-01-17T20:17:52.779Z,100265.52
2019-01-17T20:20:24.162Z,100267.94
2019-01-17T20:22:55.508Z,100274.26
2019-01-17T20:25:26.819Z,100277.86
2019-01-17T20:27:58.374Z,100278.50
2019-01-17T20:30:31.771Z,100288.95
2019-01-17T20:33:03.226Z,100299.14
2019-01-17T20:35:34.514Z,100309.38
2019-01-17T20:38:05.880Z,100318.23
2019-01-17T20:40:37.180Z,100323.84
2019-01-17T20:43:08.499Z,100331.64
2019-01-17T20:45:39.795Z,100340.20
2019-01-17T20:48:12.310Z,100346.42
2019-01-17T20:50:43.800Z,100354.50
2019-01-17T20:53:15.081Z,100354.39
2019-01-17T20:55:46.385Z,100365.22
2019-01-17T20:58:17.998Z,100364.16
2019-01-17T21:01:05.639Z,100385.86
2019-01-17T21:03:36.938Z,100401.56
2019-01-17T21:06:08.548Z,100388.84
2019-01-17T21:08:39.869Z,100401.56
2019-01-17T21:11:11.160Z,100403.70
2019-01-17T21:13:42.794Z,100409.76
2019-01-17T21:16:14.080Z,100416.06
2019-01-17T21:18:45.370Z,100414.19
2019-01-17T21:21:16.659Z,100428.17
2019-01-17T21:23:48.042Z,100432.42
2019-01-17T21:26:19.345Z,100439.63
2019-01-17T21:28:50.640Z,100443.55
2019-01-17T21:31:21.932Z,100448.62
2019-01-17T21:33:53.300Z,100457.14
2019-01-17T21:36:24.593Z,100458.52
2019-01-17T21:38:55.921Z,100474.85
2019-01-17T21:41:27.233Z,100473.09
2019-01-17T21:43:58.506Z,100483.67
2019-01-17T21:46:29.847Z,100490.59
2019-01-17T21:49:01.126Z,100499.92
2019-01-17T21:51:32.698Z,100501.58
2019-01-17T21:54:04.012Z,100509.86
2019-01-17T21:56:35.324Z,100512.03
2019-01-17T21:59:06.986Z,100517.59
2019-01-17T22:01:38.274Z,100522.48
2019-01-17T22:04:09.573Z,100528.30
2019-01-17T22:06:40.863Z,100537.92
2019-01-17T22:09:12.170Z,100542.72
2019-01-17T22:11:43.463Z,100554.04
2019-01-17T22:14:14.919Z,100544.38
2019-01-17T22:16:46.241Z,100559.91
2019-01-17T22:19:17.526Z,100555.70
2019-01-17T22:21:49.251Z,100560.73
2019-01-17T22:24:20.506Z,100578.86
2019-01-17T22:26:51.805Z,100577.70
2019-01-17T22:29:23.163Z,100579.87
2019-01-17T22:31:54.545Z,100597.05
2019-01-17T22:34:25.849Z,100607.81
2019-01-17T22:36:57.143Z,100599.13
2019-01-17T22:39:28.426Z,100606.84
2019-01-17T22:41:59.723Z,100613.22
2019-01-17T22:44:31.097Z,100632.69
2019-01-17T22:47:02.406Z,100629.86
2019-01-17T22:49:33.681Z,100637.25
2019-01-17T22:52:04.977Z,100641.97
2019-01-17T22:54:36.762Z,100648.77
2019-01-17T22:57:08.052Z,100656.96
2019-01-17T22:59:39.353Z,100660.92
2019-01-17T23:02:10.648Z,100666.60
2019-01-17T23:04:41.940Z,100662.19
2019-01-17T23:07:13.263Z,100678.45
2019-01-17T23:09:44.538Z,100685.78
2019-01-17T23:12:15.835Z,100680.77
2019-01-17T23:14:47.132Z,100693.44
2019-01-17T23:17:18.427Z,100693.29
2019-01-17T23:19:50.052Z,100695.56
2019-01-17T23:22:21.352Z,100730.11
2019-01-17T23:24:52.655Z,100718.92
2019-01-17T23:27:24.045Z,100715.91
2019-01-17T23:29:55.438Z,100725.56
2019-01-17T23:32:27.222Z,100733.55
2019-01-17T23:34:58.583Z,100750.19
2019-01-17T23:37:32.997Z,100742.67
2019-01-17T23:40:07.029Z,100751.69
2019-01-17T23:42:38.317Z,100749.58
2019-01-17T23:45:09.920Z,100767.14
2019-01-17T23:47:41.556Z,100772.58
2019-01-17T23:50:13.750Z,100778.59
2019-01-17T23:52:45.080Z,100784.16
2019-01-17T23:55:16.376Z,100785.35
2019-01-17T23:57:47.677Z,100797.41
